Lilydale, Minnesota
Current Conditions -  °F | °C
As of 2:53 PM on Thursday 23 Oct 2014 (Local Time) from KSTP Reporting Station
Clear Clear  
Wind Chill: 66°   Ceiling: Unl
Heat Index: 66°   Visibility: 10mi
Dew Point: 50°   Wind: 5mph
Humidity: 56%   Direction: 190°S
Pressure: 29.96"   Gusts: NA
Location:  44.8976°N, 93.103°W
Report Text: KSTP 231953Z 19004KT 10SM CLR 19/10 A2996 RMK AO2 SLP145 T01890100
Loading
Personal Weather Stations






























Interactive Weather Map
Tropical Storm Tracking
New forecast layout! Learn more

10-Day Weather Forecast

Advertisements
Track Severe Weather on mobile